Time;durP1;ratioP1;P1;durP2;ratioP2;P2;SDS_P1;SDS_P2;PMS_P1;PMS_P2;Temp;Humidity;BMP_temperature;BMP_pressure;BME280_temperature;BME280_humidity;BME280_pressure;Samples;Min_cycle;Max_cycle;Signal;HPM_P1;HPM_P2
2021/06/09 00:01:37;;;;;;;7.00;3.67;;;;;;;10.85;63.82;100023.81;1757971;79;21490;-67
2021/06/09 00:04:04;;;;;;;6.83;4.33;;;;;;;10.80;64.03;100025.77;1769968;79;21026;-67
2021/06/09 00:06:30;;;;;;;5.45;3.67;;;;;;;10.75;64.15;100022.51;1770347;79;20947;-67
2021/06/09 00:08:57;;;;;;;6.00;3.27;;;;;;;10.73;64.31;100024.36;1773129;79;21938;-67
2021/06/09 00:11:24;;;;;;;3.77;3.20;;;;;;;10.67;64.36;100021.98;1773671;79;21089;-67
2021/06/09 00:13:51;;;;;;;4.87;3.37;;;;;;;10.63;64.47;100028.27;1762743;79;21064;-67
2021/06/09 00:16:20;;;;;;;4.62;3.58;;;;;;;10.58;64.59;100022.39;1775765;79;21399;-67
2021/06/09 00:18:47;;;;;;;6.12;4.05;;;;;;;10.52;64.68;100024.34;1767027;79;20971;-68
2021/06/09 00:21:16;;;;;;;5.33;3.70;;;;;;;10.47;64.80;100021.10;1771411;79;21143;-67
2021/06/09 00:23:43;;;;;;;6.33;3.77;;;;;;;10.38;64.71;100021.46;1762091;79;21321;-68
2021/06/09 00:26:10;;;;;;;4.65;3.08;;;;;;;10.17;64.60;100018.42;1742357;80;21664;-67
2021/06/09 00:28:37;;;;;;;5.85;3.70;;;;;;;9.95;64.74;100023.19;1760884;80;20942;-67
2021/06/09 00:31:07;;;;;;;5.00;4.15;;;;;;;9.79;64.95;100022.09;1762616;79;21000;-67
2021/06/09 00:33:36;;;;;;;6.33;3.98;;;;;;;9.68;65.22;100023.80;1753702;79;49772;-67
2021/06/09 00:36:04;;;;;;;4.45;3.92;;;;;;;9.59;65.41;100026.31;1762879;80;20968;-67
2021/06/09 00:38:30;;;;;;;5.50;3.95;;;;;;;9.52;65.50;100020.96;1760560;79;21472;-67
2021/06/09 00:40:59;;;;;;;4.47;3.43;;;;;;;9.51;65.72;100025.76;1747009;79;21225;-67
2021/06/09 00:43:31;;;;;;;7.00;4.53;;;;;;;9.50;65.90;100029.28;1764709;79;21206;-67
2021/06/09 00:46:05;;;;;;;5.15;4.35;;;;;;;9.47;65.96;100026.80;1772370;79;21169;-67
2021/06/09 00:48:34;;;;;;;4.42;3.45;;;;;;;9.46;66.15;100027.69;1764783;79;21030;-67
2021/06/09 00:51:05;;;;;;;4.47;3.77;;;;;;;9.45;66.32;100036.42;1766859;79;21045;-67
2021/06/09 00:53:34;;;;;;;5.80;4.40;;;;;;;9.42;66.34;100036.55;1768121;80;21561;-67
2021/06/09 00:56:12;;;;;;;5.35;3.92;;;;;;;9.42;66.56;100032.63;1776823;78;21536;-67
2021/06/09 00:58:36;;;;;;;6.95;4.67;;;;;;;9.39;66.58;100028.38;1759934;80;21061;-67
2021/06/09 01:01:05;;;;;;;3.83;3.37;;;;;;;9.33;66.58;100031.68;1760039;80;20998;-67
2021/06/09 01:03:32;;;;;;;7.55;4.87;;;;;;;9.29;66.68;100035.29;1754374;80;21015;-67
2021/06/09 01:05:59;;;;;;;;;;;;;;;9.28;66.98;100033.60;1765782;80;21630;-67
2021/06/09 01:08:25;;;;;;;;;;;;;;;9.27;67.20;100038.39;1785668;79;20120;-67
2021/06/09 01:10:53;;;;;;;;;;;;;;;9.24;67.26;100032.84;1785259;79;21248;-67
2021/06/09 01:13:25;;;;;;;;;;;;;;;9.22;67.30;100032.07;1761512;79;20242;-67
2021/06/09 01:15:52;;;;;;;;;;;;;;;9.21;67.40;100033.42;1781344;79;20111;-67
2021/06/09 01:18:19;;;;;;;;;;;;;;;9.14;67.47;100033.64;1776385;79;20156;-67
2021/06/09 01:20:46;;;;;;;;;;;;;;;9.07;67.56;100030.85;1796560;78;20088;-67
2021/06/09 01:23:12;;;;;;;;;;;;;;;8.99;67.55;100025.09;1797739;78;21971;-67
2021/06/09 01:25:39;;;;;;;;;;;;;;;8.95;67.78;100028.70;1758463;80;20165;-67
2021/06/09 01:28:07;;;;;;;;;;;;;;;8.95;67.89;100033.91;1770218;78;20104;-67
2021/06/09 01:30:34;;;;;;;;;;;;;;;8.96;68.07;100035.59;1766761;78;21027;-67
2021/06/09 01:33:00;;;;;;;;;;;;;;;8.94;68.18;100030.45;1805082;78;20108;-68
2021/06/09 01:35:27;;;;;;;;;;;;;;;8.95;68.23;100033.91;1797513;78;22388;-67
2021/06/09 01:37:54;;;;;;;;;;;;;;;8.94;68.28;100040.03;1799190;78;20588;-67
2021/06/09 01:40:22;;;;;;;;;;;;;;;8.93;68.31;100035.70;1794889;78;20100;-68
2021/06/09 01:42:49;;;;;;;;;;;;;;;8.95;68.51;100033.91;1794393;78;20118;-67
2021/06/09 01:45:19;;;;;;;;;;;;;;;8.93;68.44;100029.20;1797402;78;20410;-67
2021/06/09 01:47:45;;;;;;;;;;;;;;;8.90;68.50;100025.41;1790234;78;21159;-67
2021/06/09 01:50:13;;;;;;;;;;;;;;;8.88;68.53;100025.47;1794874;78;20427;-67
2021/06/09 01:52:40;;;;;;;;;;;;;;;8.86;68.51;100022.52;1802987;78;20102;-67
2021/06/09 01:55:09;;;;;;;;;;;;;;;8.78;68.42;100022.78;1792066;78;20085;-67
2021/06/09 01:57:36;;;;;;;;;;;;;;;8.72;68.54;100023.85;1793752;78;20224;-67
2021/06/09 02:00:06;;;;;;;;;;;;;;;8.68;68.62;100005.34;1786460;78;22006;-67
2021/06/09 02:02:32;;;;;;;;;;;;;;;8.64;68.68;100006.34;1759174;78;20451;-67
2021/06/09 02:04:58;;;;;;;;;;;;;;;8.64;68.80;100008.95;1772240;79;20195;-68
2021/06/09 02:07:25;;;;;;;;;;;;;;;8.66;68.76;100003.70;1770858;79;20183;-67
2021/06/09 02:09:52;;;;;;;;;;;;;;;8.61;68.81;100007.75;1770824;79;20120;-67
2021/06/09 02:12:20;;;;;;;;;;;;;;;8.60;68.89;100006.06;1772746;79;21930;-67
2021/06/09 02:14:46;;;;;;;;;;;;;;;8.58;68.81;100009.16;1772273;79;20093;-67
2021/06/09 02:17:13;;;;;;;;;;;;;;;8.55;68.89;100005.37;1779603;79;20587;-67
2021/06/09 02:19:39;;;;;;;;;;;;;;;8.52;68.98;100008.08;1770620;79;20178;-67
2021/06/09 02:22:06;;;;;;;;;;;;;;;8.47;69.05;99999.12;1772802;79;20427;-68
2021/06/09 02:24:32;;;;;;;;;;;;;;;8.42;69.16;100002.78;1770298;79;21069;-67
2021/06/09 02:26:59;;;;;;;;;;;;;;;8.39;69.21;99997.68;1774986;79;20157;-68
2021/06/09 02:29:25;;;;;;;;;;;;;;;8.38;69.31;100006.37;1762389;79;20090;-67
2021/06/09 02:31:51;;;;;;;;;;;;;;;8.38;69.36;99998.56;1765072;79;20110;-67
2021/06/09 02:34:20;;;;;;;;;;;;;;;8.41;69.45;99998.48;1774073;79;20172;-67
2021/06/09 02:36:55;;;;;;;;;;;;;;;8.50;69.54;100002.06;1768905;79;21086;-67
2021/06/09 02:39:23;;;;;;;;;;;;;;;8.56;69.54;99995.34;1773223;79;20459;-68
2021/06/09 02:41:50;;;;;;;;;;;;;;;8.66;69.64;100001.94;1780702;79;20260;-67
2021/06/09 02:44:17;;;;;;;;;;;;;;;9.00;70.18;100004.65;1766284;79;20220;-67
2021/06/09 02:46:50;;;;;;;;;;;;;;;9.85;70.45;99990.09;1771278;79;20635;-68
2021/06/09 02:49:18;;;;;;;;;;;;;;;10.86;70.14;99988.09;1778611;79;21049;-67
2021/06/09 02:51:48;;;;;;;;;;;;;;;11.76;69.34;99983.95;1770402;79;20574;-68
2021/06/09 02:54:20;;;;;;;;;;;;;;;12.36;68.45;99980.19;1768542;79;20131;-69
2021/06/09 02:57:05;;;;;;;;;;;;;;;12.85;67.99;99980.27;1764858;79;20112;-69
2021/06/09 02:59:58;;;;;;;;;;;;;;;13.38;67.60;99984.44;1681987;83;20160;-69
2021/06/09 03:02:48;;;;;;;;;;;;;;;14.00;67.46;99981.41;1673021;82;20772;-69
2021/06/09 03:05:18;;;;;;;;;;;;;;;14.99;67.40;99983.87;1686595;82;20503;-68
2021/06/09 03:08:11;;;;;;;;;;;;;;;15.30;66.01;99981.97;1684435;83;20183;-69
2021/06/09 03:10:53;;;;;;;;;;;;;;;14.73;65.41;99984.59;1686574;83;20267;-68
2021/06/09 03:13:57;;;;;;;;;;;;;;;14.01;65.94;99976.53;1685950;83;20471;-69
2021/06/09 03:16:22;;;;;;;;;;;;;;;13.63;66.14;99974.28;1707756;81;21979;-68
2021/06/09 03:18:50;;;;;;;;;;;;;;;13.72;66.35;99967.67;1698030;82;20665;-68
2021/06/09 03:21:20;;;;;;;;;;;;;;;14.23;66.54;99972.67;1693190;83;21112;-70
2021/06/09 03:24:07;;;;;;;;;;;;;;;14.90;65.89;99973.05;1693662;82;20174;-69
2021/06/09 03:26:56;;;;;;;;;;;;;;;15.52;65.69;99973.56;1684642;82;20207;-69
2021/06/09 03:29:29;;;;;;;;;;;;;;;16.39;65.58;99971.45;1677406;82;21253;-69
2021/06/09 03:31:59;;;;;;;;;;;;;;;17.46;65.22;99971.91;1685465;82;20161;-69
2021/06/09 03:34:31;;;;;;;;;;;;;;;18.47;64.54;99968.41;1746267;79;20556;-70
2021/06/09 03:36:59;;;;;;;;;;;;;;;19.25;64.13;99968.13;1774207;79;20157;-70
2021/06/09 03:39:27;;;;;;;;;;;;;;;20.00;63.29;99966.55;1768919;79;20117;-70
2021/06/09 03:41:56;;;;;;;;;;;;;;;20.87;63.11;99967.13;1766797;79;21239;-69
2021/06/09 03:44:35;;;;;;;;;;;;;;;21.45;62.12;99966.51;1764913;79;20138;-69
2021/06/09 03:47:02;;;;;;;;;;;;;;;22.27;62.48;99953.39;1769199;79;20512;-70
2021/06/09 03:49:29;;;;;;;;;;;;;;;23.39;62.03;99953.44;1772589;79;20081;-69
2021/06/09 03:51:55;;;;;;;;;;;;;;;24.39;61.23;99947.53;1771552;79;20170;-70
2021/06/09 03:54:22;;;;;;;;;;;;;;;25.26;60.85;99946.55;1779992;79;21116;-70
2021/06/09 03:56:50;;;;;;;;;;;;;;;25.63;58.78;99944.83;1768566;79;21237;-69
2021/06/09 03:59:20;;;;;;;;;;;;;;;25.81;58.91;99937.16;1776228;79;20436;-70
2021/06/09 04:01:47;;;;;;;;;;;;;;;26.37;58.19;99932.83;1773093;79;20107;-70
2021/06/09 04:04:19;;;;;;;;;;;;;;;26.84;57.66;99937.44;1766121;79;20184;-70
2021/06/09 04:06:48;;;;;;;;;;;;;;;27.27;56.53;99941.14;1766123;79;20995;-70
2021/06/09 04:09:20;;;;;;;;;;;;;;;27.28;56.07;99932.94;1773085;79;20323;-70
2021/06/09 04:11:50;;;;;;;;;;;;;;;27.70;55.82;99933.02;1767135;79;20170;-71
2021/06/09 04:14:19;;;;;;;;;;;;;;;27.86;55.20;99930.23;1758906;79;20245;-70
2021/06/09 04:16:45;;;;;;;;;;;;;;;28.36;54.78;99934.67;1763556;79;20475;-71
2021/06/09 04:19:13;;;;;;;;;;;;;;;28.39;53.99;99940.19;1765471;79;21195;-71
2021/06/09 04:21:40;;;;;;;;;;;;;;;28.77;54.04;99940.48;1778661;79;20444;-70
2021/06/09 04:24:06;;;;;;;;;;;;;;;29.63;53.99;99939.44;1776216;79;20146;-71
2021/06/09 04:26:34;;;;;;;;;;;;;;;30.36;53.12;99937.08;1765684;79;20142;-71
2021/06/09 04:29:02;;;;;;;;;;;;;;;30.61;52.07;99930.73;1766140;79;20120;-68
2021/06/09 04:31:29;;;;;;;;;;;;;;;31.08;52.02;99923.75;1768066;79;22683;-68
2021/06/09 04:33:56;;;;;;;;;;;;;;;31.28;50.10;99927.34;1767503;79;20208;-69
2021/06/09 04:36:24;;;;;;;;;;;;;;;31.19;49.97;99929.91;1767752;79;20119;-68
2021/06/09 04:38:50;;;;;;;;;;;;;;;30.79;48.01;99931.05;1764841;79;20263;-68
2021/06/09 04:41:18;;;;;;;;;;;;;;;30.27;47.49;99931.84;1774033;79;20234;-68
2021/06/09 04:43:46;;;;;;;;;;;;;;;29.81;46.57;99930.08;1758519;79;21075;-68
2021/06/09 04:46:21;;;;;;;;;;;;;;;29.34;46.48;99930.06;1764551;79;20137;-68
2021/06/09 04:49:00;;;;;;;;;;;;;;;29.06;46.11;99937.48;1760724;79;20092;-69
2021/06/09 04:51:29;;;;;;;;;;;;;;;28.93;46.34;99931.89;1771485;79;20129;-67
2021/06/09 04:53:55;;;;;;;;;;;;;;;29.09;45.67;99930.91;1771253;79;20166;-68
2021/06/09 04:56:21;;;;;;;;;;;;;;;29.17;45.38;99930.28;1765349;79;22052;-69
2021/06/09 04:58:48;;;;;;;;;;;;;;;29.29;45.82;99931.14;1767848;79;20147;-68
2021/06/09 05:01:14;;;;;;;;;;;;;;;29.46;45.05;99927.19;1773113;79;20470;-68
2021/06/09 05:03:41;;;;;;;;;;;;;;;29.50;44.35;99923.11;1769078;79;20189;-68
2021/06/09 05:06:07;;;;;;;;;;;;;;;29.62;44.50;99928.30;1770337;79;20433;-68
2021/06/09 05:08:33;;;;;;;;;;;;;;;29.62;44.10;99928.81;1766995;79;20589;-67
2021/06/09 05:11:02;;;;;;;;;;;;;;;29.75;43.85;99930.86;1771556;79;20078;-67
2021/06/09 05:13:36;;;;;;;;;;;;;;;30.34;44.22;99923.83;1772526;79;20156;-68
2021/06/09 05:16:04;;;;;;;;;;;;;;;30.47;43.01;99921.72;1764264;79;20287;-68
2021/06/09 05:18:34;;;;;;;;;;;;;;;30.52;42.71;99917.41;1768036;79;20076;-68
2021/06/09 05:21:01;;;;;;;;;;;;;;;30.24;42.11;99921.98;1780691;79;21798;-68
2021/06/09 05:23:31;;;;;;;;;;;;;;;30.14;42.34;99918.26;1776343;79;20171;-68
2021/06/09 05:25:59;;;;;;;;;;;;;;;30.31;42.13;99918.31;1766954;79;20152;-68
2021/06/09 05:28:27;;;;;;;;;;;;;;;30.70;41.98;99910.69;1779629;79;20136;-68
2021/06/09 05:30:57;;;;;;;;;;;;;;;30.82;41.36;99917.20;1748123;79;20496;-70
2021/06/09 05:33:27;;;;;;;;;;;;;;;30.35;41.04;99917.40;1770803;79;21165;-70
2021/06/09 05:35:54;;;;;;;;;;;;;;;30.32;40.87;99921.84;1768609;79;20144;-69
2021/06/09 05:38:22;;;;;;;;;;;;;;;29.87;39.74;99915.84;1779030;79;20143;-69
2021/06/09 05:40:48;;;;;;;;;;;;;;;29.52;40.21;99913.01;1764636;79;21244;-69
2021/06/09 05:43:22;;;;;;;;;;;;;;;29.74;40.43;99919.23;1776114;79;20191;-68
2021/06/09 05:45:49;;;;;;;;;;;;;;;29.96;40.12;99917.37;1768107;79;21117;-69
2021/06/09 05:48:16;;;;;;;;;;;;;;;29.29;37.29;99924.41;1775887;79;20450;-68
2021/06/09 05:50:42;;;;;;;;;;;;;;;28.48;39.72;99921.66;1770983;79;20114;-70
2021/06/09 05:53:10;;;;;;;;;;;;;;;28.68;39.07;99924.14;1774514;79;20510;-70
2021/06/09 05:55:38;;;;;;;;;;;;;;;28.52;39.10;99921.62;1772430;79;20113;-67
2021/06/09 05:58:05;;;;;;;;;;;;;;;28.70;39.53;99923.94;1777769;79;21273;-69
2021/06/09 06:00:32;;;;;;;;;;;;;;;28.61;37.96;99915.14;1766989;79;21060;-69
2021/06/09 06:03:03;;;;;;;;;;;;;;;27.98;38.66;99913.70;1768905;79;20266;-69
2021/06/09 06:05:31;;;;;;;;;;;;;;;27.88;38.71;99916.13;1778368;79;20111;-69
2021/06/09 06:07:57;;;;;;;;;;;;;;;27.78;39.28;99916.84;1769100;79;20163;-69
2021/06/09 06:10:23;;;;;;;;;;;;;;;28.03;39.04;99916.69;1772653;79;21108;-70
2021/06/09 06:12:51;;;;;;;;;;;;;;;28.10;38.75;99920.33;1779000;78;20140;-70
2021/06/09 06:15:18;;;;;;;;;;;;;;;27.47;38.31;99922.77;1762545;80;20118;-70
2021/06/09 06:17:45;;;;;;;;;;;;;;;27.12;39.03;99923.61;1780107;78;20126;-69
2021/06/09 06:20:17;;;;;;;;;;;;;;;27.22;38.90;99921.55;1787763;79;20127;-70
2021/06/09 06:22:47;;;;;;;;;;;;;;;27.62;39.05;99935.76;1784641;78;21128;-70
2021/06/09 06:25:17;;;;;;;;;;;;;;;28.14;39.33;99932.36;1811624;78;20144;-69
2021/06/09 06:27:45;;;;;;;;;;;;;;;28.83;39.14;99932.70;1769403;80;20287;-70
2021/06/09 06:30:14;;;;;;;;;;;;;;;28.93;38.16;99934.58;1759061;79;20134;-72
2021/06/09 06:32:41;;;;;;;;;;;;;;;28.14;37.19;99933.70;1762598;79;20097;-72
2021/06/09 06:35:12;;;;;;;;;;;;;;;26.92;37.84;99928.03;1743979;80;22347;-71
2021/06/09 06:37:39;;;;;;;;;;;;;;;26.44;38.13;99929.81;1769890;79;20181;-72
2021/06/09 06:40:08;;;;;;;;;;;;;;;26.04;38.60;99931.50;1787200;78;20440;-71
2021/06/09 06:42:34;;;;;;;;;;;;;;;26.25;39.27;99920.81;1751934;80;20880;-71
2021/06/09 06:45:01;;;;;;;;;;;;;;;26.50;39.11;99927.82;1749924;79;20181;-71
2021/06/09 06:47:28;;;;;;;;;;;;;;;26.22;38.75;99915.80;1771097;79;22082;-71
2021/06/09 06:49:59;;;;;;;;;;;;;;;26.56;39.66;99922.28;1787993;78;20147;-72
2021/06/09 06:52:32;;;;;;;;;;;;;;;27.07;39.11;99931.33;1751003;80;20548;-71
2021/06/09 06:55:03;;;;;;;;;;;;;;;26.92;39.12;99925.36;1799729;78;20181;-71
2021/06/09 06:57:30;;;;;;;;;;;;;;;27.08;39.01;99924.95;1753533;79;20214;-71
2021/06/09 07:00:03;;;;;;;;;;;;;;;27.08;38.72;99930.30;1789457;78;21295;-71
2021/06/09 07:02:35;;;;;;;;;;;;;;;26.81;38.96;99927.08;1780572;78;20125;-71
2021/06/09 07:05:04;;;;;;;;;;;;;;;26.94;37.82;99934.06;1777135;78;21285;-71
2021/06/09 07:07:32;;;;;;;;;;;;;;;25.81;38.13;99934.48;1775954;79;20210;-71
2021/06/09 07:10:02;;;;;;;;;;;;;;;25.73;39.68;99937.14;1775564;79;20141;-72
2021/06/09 07:12:29;;;;;;;;;;;;;;;26.12;39.63;99932.02;1765189;79;21230;-71
2021/06/09 07:14:56;;;;;;;;;;;;;;;26.57;40.03;99936.00;1756542;79;20094;-71
2021/06/09 07:17:22;;;;;;;;;;;;;;;26.85;39.80;99931.06;1761754;78;20413;-71
2021/06/09 07:19:49;;;;;;;;;;;;;;;27.16;39.77;99932.98;1770749;79;20109;-71
2021/06/09 07:22:16;;;;;;;;;;;;;;;27.04;38.55;99941.05;1771001;79;20480;-71
2021/06/09 07:24:43;;;;;;;;;;;;;;;26.66;39.44;99936.30;1769941;79;21106;-71
2021/06/09 07:27:10;;;;;;;;;;;;;;;26.42;38.19;99943.04;1775578;79;20230;-71
2021/06/09 07:29:37;;;;;;;;;;;;;;;25.51;38.88;99948.79;1770144;79;20209;-71
2021/06/09 07:32:06;;;;;;;;;;;;;;;24.52;39.24;99950.66;1763382;79;20123;-70
2021/06/09 07:34:32;;;;;;;;;;;;;;;23.77;39.78;99953.69;1765570;79;20168;-70
2021/06/09 07:37:04;;;;;;;;;;;;;;;23.60;40.51;99952.66;1766484;79;20724;-70
2021/06/09 07:39:43;;;;;;;;;;;;;;;23.38;40.71;99953.91;1773766;79;20168;-69
2021/06/09 07:42:13;;;;;;;;;;;;;;;23.01;41.42;99954.80;1736764;79;20176;-70
2021/06/09 07:44:51;;;;;;;;;;;;;;;23.11;41.50;99948.62;1765669;79;20106;-70
2021/06/09 07:47:18;;;;;;;;;;;;;;;22.78;41.27;99956.13;1768707;79;20092;-70
2021/06/09 07:49:47;;;;;;;;;;;;;;;21.77;41.82;99954.83;1774941;78;20761;-70
2021/06/09 07:52:14;;;;;;;;;;;;;;;21.53;42.92;99958.70;1773478;79;20242;-70
2021/06/09 07:54:42;;;;;;;;;;;;;;;22.03;43.61;99955.11;1764021;79;20086;-70
2021/06/09 07:57:10;;;;;;;;;;;;;;;22.20;42.88;99953.59;1774450;79;20139;-70
2021/06/09 07:59:38;;;;;;;;;;;;;;;21.75;43.90;99959.44;1768440;79;20103;-70
2021/06/09 08:02:05;;;;;;;;;;;;;;;21.78;43.83;99951.19;1766313;79;21132;-70
2021/06/09 08:04:31;;;;;;;;;;;;;;;21.58;43.97;99956.47;1763056;79;20088;-69
2021/06/09 08:09:42;;;;;;;;;;;;;;;21.36;44.06;99964.64;1738069;79;20150;-69
2021/06/09 08:12:11;;;;;;;;;;;;;;;20.95;44.55;99963.83;1734287;80;20201;-70
2021/06/09 08:14:38;;;;;;;;;;;;;;;20.72;45.75;99966.62;1736368;80;21094;-70
2021/06/09 08:17:09;;;;;;;;;;;;;;;20.87;46.08;99962.31;1719948;81;20185;-70
2021/06/09 08:19:37;;;;;;;;;;;;;;;21.04;46.31;99973.63;1719585;81;20203;-70
2021/06/09 08:22:04;;;;;;;;;;;;;;;21.00;45.81;99964.23;1743334;80;20106;-71
2021/06/09 08:24:30;;;;;;;;;;;;;;;21.28;46.15;99960.50;1736690;81;20122;-71
2021/06/09 08:27:03;;;;;;;;;;;;;;;21.55;46.27;99969.20;1743275;80;21094;-68
2021/06/09 08:29:25;;;;;;;;;;;;;;;21.67;46.57;99960.12;1719614;80;20093;-68
2021/06/09 08:31:51;;;;;;;;;;;;;;;21.94;46.16;99967.43;1716809;80;20241;-69
2021/06/09 08:34:18;;;;;;;;;;;;;;;22.15;46.23;99969.93;1722494;80;20327;-69
2021/06/09 08:36:44;;;;;;;;;;;;;;;22.13;46.02;99967.92;1734004;81;20150;-68
2021/06/09 08:39:11;;;;;;;;;;;;;;;22.21;46.56;99971.22;1721418;81;21955;-69
2021/06/09 08:41:40;;;;;;;;;;;;;;;22.17;46.14;99967.14;1725929;81;20200;-68
2021/06/09 08:44:07;;;;;;;;;;;;;;;21.92;45.89;99971.20;1717466;80;20121;-69
2021/06/09 08:46:36;;;;;;;;;;;;;;;22.10;46.59;99965.05;1716213;80;20511;-69
2021/06/09 08:49:04;;;;;;;;;;;;;;;22.10;46.00;99973.03;1714074;81;20933;-69
2021/06/09 08:51:35;;;;;;;;;;;;;;;21.97;45.93;99973.79;1726415;81;21108;-69
2021/06/09 08:54:06;;;;;;;;;;;;;;;22.12;46.59;99975.06;1741724;80;20175;-71
2021/06/09 08:56:32;;;;;;;;;;;;;;;22.15;45.92;99971.75;1731712;81;20143;-72
2021/06/09 08:58:59;;;;;;;;;;;;;;;22.05;46.49;99969.95;1730761;80;20151;-74
2021/06/09 09:01:25;;;;;;;;;;;;;;;22.33;46.04;99978.08;1736509;80;20300;-71
2021/06/09 09:03:52;;;;;;;;;;;;;;;22.52;46.06;99961.26;1735979;80;21135;-70
2021/06/09 09:06:20;;;;;;;;;;;;;;;22.82;46.50;99970.81;1734154;80;20779;-71
2021/06/09 09:08:48;;;;;;;;;;;;;;;23.09;45.36;99971.88;1737823;81;20128;-71
2021/06/09 09:11:16;;;;;;;;;;;;;;;22.39;45.04;99973.52;1727276;81;20293;-70
2021/06/09 09:13:43;;;;;;;;;;;;;;;22.21;46.28;99977.41;1732899;80;20875;-71
2021/06/09 09:16:09;;;;;;;;;;;;;;;22.70;46.56;99979.97;1726694;81;21192;-70
2021/06/09 09:18:44;;;;;;;;;;;;;;;23.23;46.24;99966.06;1707382;81;20155;-68
2021/06/09 09:21:12;;;;;;;;;;;;;;;23.29;45.57;99976.63;1726801;81;20215;-69
2021/06/09 09:23:47;;;;;;;;;;;;;;;22.96;45.16;99974.37;1731324;80;20150;-70
2021/06/09 09:26:30;;;;;;;;;;;;;;;22.88;45.13;99972.06;1717677;81;20549;-70
2021/06/09 09:29:14;;;;;;;;;;;;;;;22.56;45.39;99974.11;1734296;80;20114;-70
2021/06/09 09:31:59;;;;;;;;;;;;;;;22.55;45.54;99975.11;1742516;80;20089;-70
2021/06/09 09:34:40;;;;;;;;;;;;;;;22.75;45.83;99977.72;1702757;81;20101;-71
2021/06/09 09:37:12;;;;;;;;;;;;;;;23.14;45.82;99973.62;1711496;81;20450;-70
2021/06/09 09:39:41;;;;;;;;;;;;;;;23.53;46.06;99972.09;1734693;81;20188;-71
2021/06/09 09:42:33;;;;;;;;;;;;;;;23.46;45.52;99975.32;1724141;81;21945;-69
2021/06/09 09:45:26;;;;;;;;;;;;;;;23.56;45.65;99979.78;1730816;80;20149;-69
2021/06/09 09:48:07;;;;;;;;;;;;;;;22.53;43.38;99975.73;1730785;81;20175;-70
2021/06/09 09:50:49;;;;;;;;;;;;;;;21.56;44.55;99977.02;1723852;81;20196;-70
2021/06/09 09:53:23;;;;;;;;;;;;;;;21.32;45.80;99981.84;1742817;81;20122;-69
2021/06/09 09:56:05;;;;;;;;;;;;;;;21.71;45.71;99980.14;1734310;80;21127;-69
2021/06/09 09:58:35;;;;;;;;;;;;;;;21.45;45.53;99987.76;1718388;82;20198;-70
2021/06/09 10:01:13;;;;;;;;;;;;;;;21.00;46.31;99985.02;1726673;81;20163;-71
2021/06/09 10:03:41;;;;;;;;;;;;;;;21.29;46.54;99974.98;1732045;81;20118;-69
2021/06/09 10:06:20;;;;;;;;;;;;;;;21.71;46.19;99984.63;1708885;80;20546;-68
2021/06/09 10:08:47;;;;;;;;;;;;;;;21.72;46.13;99984.97;1719846;80;22615;-67
2021/06/09 10:11:16;;;;;;;;;;;;;;;21.87;46.73;99984.44;1725890;81;20193;-67
2021/06/09 10:13:43;;;;;;;;;;;;;;;21.62;46.71;99984.47;1741362;81;20319;-66
2021/06/09 10:16:30;;;;;;;;;;;;;;;22.09;47.55;99976.65;1724756;81;20378;-64
2021/06/09 10:19:05;;;;;;;;;;;;;;;22.81;47.11;99967.82;1728368;81;20087;-67
2021/06/09 10:21:33;;;;;;;;;;;;;;;22.85;45.44;99971.86;1725526;80;21124;-68
2021/06/09 10:24:01;;;;;;;;;;;;;;;22.62;46.23;99971.86;1732106;81;20263;-67
2021/06/09 10:26:28;;;;;;;;;;;;;;;22.25;46.24;99977.95;1730279;80;20442;-67
2021/06/09 10:29:04;;;;;;;;;;;;;;;22.30;46.15;99975.22;1729975;80;20174;-66
2021/06/09 10:31:33;;;;;;;;;;;;;;;22.20;46.38;99974.87;1726175;80;20141;-65
2021/06/09 10:34:00;;;;;;;;;;;;;;;21.92;46.61;99972.03;1720866;80;21104;-66
2021/06/09 10:36:27;;;;;;;;;;;;;;;21.96;46.17;99972.13;1723812;81;20588;-65
2021/06/09 10:38:54;;;;;;;;;;;;;;;21.86;45.55;99981.91;1725707;80;21136;-65
2021/06/09 10:41:26;;;;;;;;;;;;;;;21.57;45.86;99978.72;1729523;80;20197;-70
2021/06/09 10:43:56;;;;;;;;;;;;;;;21.58;46.21;99977.73;1704181;82;20222;-70
2021/06/09 10:46:25;;;;;;;;;;;;;;;21.74;46.46;99978.53;1725824;80;22003;-68
2021/06/09 10:48:59;;;;;;;;;;;;;;;21.96;46.65;99970.80;1730130;81;20253;-68
2021/06/09 10:51:25;;;;;;;;;;;;;;;22.03;47.00;99971.90;1710785;81;20104;-66
2021/06/09 10:53:52;;;;;;;;;;;;;;;22.38;46.95;99965.20;1709900;81;20230;-67
2021/06/09 10:56:47;;;;;;;5.42;2.92;;;;;;;22.35;46.12;99974.80;1869389;73;22762;-66
2021/06/09 10:59:18;;;;;;;9.60;3.20;;;;;;;21.85;46.04;99981.56;1830372;75;21016;-67
2021/06/09 11:01:47;;;;;;;6.95;2.00;;;;;;;21.98;47.22;99974.12;1831524;75;21081;-66
2021/06/09 11:04:14;;;;;;;11.70;2.55;;;;;;;22.01;45.44;99974.34;1791768;77;20983;-66
2021/06/09 11:06:46;;;;;;;10.53;2.62;;;;;;;21.63;46.48;99980.82;1798491;78;21025;-66
2021/06/09 11:09:17;;;;;;;6.10;2.30;;;;;;;21.90;46.93;99969.53;1795103;78;20898;-66
2021/06/09 11:11:47;;;;;;;5.40;2.10;;;;;;;21.60;46.35;99983.76;1805048;77;21304;-68
2021/06/09 11:14:24;;;;;;;5.83;2.15;;;;;;;21.88;46.54;99978.63;1806734;77;21575;-68
2021/06/09 11:16:54;;;;;;;10.48;2.17;;;;;;;22.02;46.77;99976.88;1801271;77;20963;-68
2021/06/09 11:19:44;;;;;;;6.22;2.35;;;;;;;22.31;46.46;99971.56;1802060;77;21024;-68
2021/06/09 11:22:16;;;;;;;6.67;2.05;;;;;;;22.52;46.62;99970.57;1797072;77;21040;-66
2021/06/09 11:25:07;;;;;;;12.68;2.70;;;;;;;22.64;45.58;99975.23;1794028;77;21606;-67
2021/06/09 11:27:35;;;;;;;9.25;2.22;;;;;;;22.12;45.21;99969.75;1804155;78;21074;-66
2021/06/09 11:30:32;;;;;;;8.05;2.75;;;;;;;21.85;46.45;99971.77;1807178;77;20935;-67
2021/06/09 11:33:04;;;;;;;6.65;2.30;;;;;;;22.17;46.30;99973.79;1799162;78;21731;-67
2021/06/09 11:35:49;;;;;;;10.10;2.35;;;;;;;22.49;46.29;99965.05;1798636;77;20986;-67
2021/06/09 11:38:26;;;;;;;9.48;1.98;;;;;;;22.80;46.15;99974.14;1801617;77;21630;-68
2021/06/09 11:41:12;;;;;;;7.00;2.30;;;;;;;22.91;44.76;99969.97;1800083;77;21092;-68
2021/06/09 11:43:53;;;;;;;6.33;1.98;;;;;;;22.85;44.37;99975.84;1798887;77;20968;-67
2021/06/09 11:46:24;;;;;;;3.40;2.15;;;;;;;22.41;44.78;99968.91;1804891;77;20992;-66
2021/06/09 11:48:59;;;;;;;5.05;1.95;;;;;;;22.42;45.60;99973.23;1803720;77;21034;-67
2021/06/09 11:51:43;;;;;;;6.17;2.40;;;;;;;22.26;43.61;99966.32;1801039;77;20997;-66
2021/06/09 11:54:23;;;;;;;21.10;3.05;;;;;;;22.20;45.07;99968.22;1800866;77;21268;-68
2021/06/09 11:56:57;;;;;;;13.75;2.45;;;;;;;22.47;45.46;99968.33;1795498;77;21020;-67
2021/06/09 11:59:39;;;;;;;5.70;2.10;;;;;;;22.89;45.55;99965.27;1801240;78;21120;-67
2021/06/09 12:02:24;;;;;;;14.03;2.83;;;;;;;22.91;44.53;99972.63;1798099;79;21000;-66
2021/06/09 12:04:54;;;;;;;25.10;3.83;;;;;;;22.89;45.10;99966.60;1837143;76;21102;-65
2021/06/09 12:07:32;;;;;;;12.98;3.05;;;;;;;23.09;44.92;99977.21;1831052;77;21083;-66
2021/06/09 12:10:03;;;;;;;28.80;5.28;;;;;;;23.14;44.70;99961.64;1837696;76;20958;-66
2021/06/09 12:12:32;;;;;;;44.95;6.58;;;;;;;23.44;45.31;99961.80;1835072;76;20902;-66
2021/06/09 12:15:05;;;;;;;25.80;4.65;;;;;;;23.36;44.38;99966.56;1833464;76;21006;-66
2021/06/09 12:17:37;;;;;;;19.67;3.75;;;;;;;23.64;44.46;99965.20;1836064;77;20942;-67
2021/06/09 12:20:15;;;;;;;31.45;4.95;;;;;;;23.71;44.32;99962.30;1830266;77;22105;-66
2021/06/09 12:22:52;;;;;;;9.63;3.17;;;;;;;23.64;44.56;99961.20;1800753;77;21596;-66
2021/06/09 12:25:24;;;;;;;27.95;4.08;;;;;;;23.74;44.20;99959.33;1836571;77;21555;-66
2021/06/09 12:28:07;;;;;;;10.28;2.83;;;;;;;23.70;44.46;99965.09;1829189;77;21021;-66
2021/06/09 12:30:38;;;;;;;23.95;3.37;;;;;;;23.70;43.83;99973.92;1829032;76;20977;-68
2021/06/09 12:33:05;;;;;;;9.68;3.08;;;;;;;23.21;43.94;99966.70;1835741;77;21058;-67
2021/06/09 12:35:33;;;;;;;11.05;2.83;;;;;;;23.09;44.30;99961.23;1835115;77;20940;-65
2021/06/09 12:38:03;;;;;;;12.15;3.27;;;;;;;22.98;44.41;99955.09;1834330;76;21038;-66
2021/06/09 12:40:33;;;;;;;7.05;2.35;;;;;;;23.16;44.84;99956.97;1840536;76;22386;-66
2021/06/09 12:43:05;;;;;;;12.30;3.00;;;;;;;23.42;44.27;99959.30;1830315;76;21547;-67
2021/06/09 12:45:36;;;;;;;6.30;2.22;;;;;;;23.23;43.80;99956.74;1835669;76;21069;-67
2021/06/09 12:48:12;;;;;;;7.85;2.70;;;;;;;22.97;43.36;99958.76;1794407;77;20914;-66